Portada
METAR-TAF:

METAR-TAF

Aeropuertos :

Bonaire, Antillas Neerlandesas

Aeropuerto Internacional Flamingo

latitud: 12-09N, longitud: 068-17W, altitud: 6 m

Observación

El informe se hizo hace 23 minutos, a las 05:55 UTC
Viento 16 kt del este
Temperatura 27°C
Humedad 79%
Presión 1012 hPa
Visibilidad 10 km o más

METAR: TNCB 270555Z AUTO 09016KT 9999 // FEW015/// SCT020/// 27/23 Q1012 RE//

Hora: 02:18 (06:18 UTC)

Pronóstico

El informe se hizo hace 1 hora y 43 minutos, a las 04:35 UTC
Pronóstico válido del 27 a las 06 UTC al 28 a las 12 UTC
Viento 17 kt del este
Visibilidad 10 km o más
Nubes dispersas a una altura de 1800 ft

TAF: TNCB 270435Z 2706/2812 09017KT 9999 SCT018

Observaciones y pronósticos meteorológicos de más de 4000 aeropuertos (mensajes METAR y TAF).

Los puntos amarillos y rojos representan las estaciones disponibles.

Ponga el ratón en el punto deseado para ver el nombre de la estación.

Haga clic para ver las observaciones y los pronósticos meteorológicos.

Para cambiar el mapa : haga clic en los botones verdes con una cruz de color negro para hacer un zoom, en el botón verde con un guión para alejar o en las flechas verdes para mapas adyacentes.


METAR-TAF: